Time;durP1;ratioP1;P1;durP2;ratioP2;P2;SDS_P1;SDS_P2;PMS_P1;PMS_P2;Temp;Humidity;BMP_temperature;BMP_pressure;BME280_temperature;BME280_humidity;BME280_pressure;Samples;Min_cycle;Max_cycle;Signal;HPM_P1;HPM_P2
2022/04/06 00:01:45;;;;;;;;;;;7.30;99.90;;;;;;5030971;28;19940;-73
2022/04/06 00:04:12;;;;;;;;;;;7.30;99.90;;;;;;5033137;28;19925;-73
2022/04/06 00:06:39;;;;;;;;;;;7.20;99.90;;;;;;5019164;28;19932;-73
2022/04/06 00:09:16;;;;;;;;;;;7.20;99.90;;;;;;5018895;28;19929;-73
2022/04/06 00:11:43;;;;;;;;;;;7.20;99.90;;;;;;5015532;28;19933;-73
2022/04/06 00:14:10;;;;;;;;;;;7.10;99.90;;;;;;5023042;28;19925;-73
2022/04/06 00:16:37;;;;;;;;;;;7.10;99.90;;;;;;5019213;28;20003;-73
2022/04/06 00:19:04;;;;;;;;;;;7.10;99.90;;;;;;5005247;28;19929;-73
2022/04/06 00:21:31;;;;;;;;;;;7.10;99.90;;;;;;5002396;28;19979;-73
2022/04/06 00:23:58;;;;;;;;;;;7.10;99.90;;;;;;5018786;28;19934;-73
2022/04/06 00:26:25;;;;;;;;;;;7.10;99.90;;;;;;5015031;28;19935;-73
2022/04/06 00:28:52;;;;;;;;;;;7.10;99.90;;;;;;5017630;28;19933;-73
2022/04/06 00:31:19;;;;;;;;;;;7.00;99.90;;;;;;5017258;28;19933;-73
2022/04/06 00:33:47;;;;;;;;;;;7.00;99.90;;;;;;5017291;28;20303;-74
2022/04/06 00:36:14;;;;;;;;;;;7.00;99.90;;;;;;5021916;28;20007;-73
2022/04/06 00:38:41;;;;;;;;;;;7.00;99.90;;;;;;5019445;28;20438;-73
2022/04/06 00:41:08;;;;;;;;;;;7.00;99.90;;;;;;5033964;28;19929;-73
2022/04/06 00:43:35;;;;;;;;;;;7.00;99.90;;;;;;5020425;28;19933;-73
2022/04/06 00:46:01;;;;;;;;;;;7.00;99.90;;;;;;5037186;28;19929;-73
2022/04/06 00:48:28;;;;;;;;;;;7.00;99.90;;;;;;5019031;28;20363;-73
2022/04/06 00:50:56;;;;;;;;;;;7.00;99.90;;;;;;5017943;28;19969;-73
2022/04/06 00:53:23;;;;;;;;;;;7.10;99.90;;;;;;5017490;28;19929;-73
2022/04/06 00:55:50;;;;;;;;;;;7.10;99.90;;;;;;5035696;28;19925;-73
2022/04/06 00:58:17;;;;;;;;;;;7.10;99.90;;;;;;5019807;28;20438;-73
2022/04/06 01:00:44;;;;;;;;;;;7.10;99.90;;;;;;5022217;28;20570;-73
2022/04/06 01:03:11;;;;;;;;;;;7.10;99.90;;;;;;5003558;28;20375;-73
2022/04/06 01:05:38;;;;;;;;;;;7.10;99.90;;;;;;5017117;28;19963;-73
2022/04/06 01:08:06;;;;;;;;;;;7.00;99.90;;;;;;5001323;28;19979;-73
2022/04/06 01:10:33;;;;;;;;;;;7.00;99.90;;;;;;5016826;28;19940;-73
2022/04/06 01:13:00;;;;;;;;;;;6.90;99.90;;;;;;5017106;28;19988;-74
2022/04/06 01:15:28;;;;;;;;;;;7.00;99.90;;;;;;5036592;28;19929;-73
2022/04/06 01:17:54;;;;;;;;;;;6.90;99.90;;;;;;5017866;28;20826;-73
2022/04/06 01:20:21;;;;;;;;;;;6.90;99.90;;;;;;5036955;28;20376;-73
2022/04/06 01:22:48;;;;;;;;;;;6.90;99.90;;;;;;5020954;28;20337;-73
2022/04/06 01:25:15;;;;;;;;;;;6.90;99.90;;;;;;5020343;28;19933;-73
2022/04/06 01:27:42;;;;;;;;;;;6.80;99.90;;;;;;5018863;28;19983;-73
2022/04/06 01:30:09;;;;;;;;;;;6.80;99.90;;;;;;5014866;28;20007;-73
2022/04/06 01:32:36;;;;;;;;;;;6.80;99.90;;;;;;5033037;28;21018;-73
2022/04/06 01:35:04;;;;;;;;;;;6.80;99.90;;;;;;5020865;28;19982;-73
2022/04/06 01:37:31;;;;;;;;;;;6.70;99.90;;;;;;5020931;28;19961;-74
2022/04/06 01:39:58;;;;;;;;;;;6.70;99.90;;;;;;5033762;28;19929;-73
2022/04/06 01:42:25;;;;;;;;;;;6.70;99.90;;;;;;5018902;28;19941;-73
2022/04/06 01:44:52;;;;;;;;;;;6.70;99.90;;;;;;5016853;28;19968;-74
2022/04/06 01:47:20;;;;;;;;;;;6.60;99.90;;;;;;5034177;28;20396;-73
2022/04/06 01:52:33;;;;;;;;;;;6.60;99.90;;;;;;5015698;28;19928;-73
2022/04/06 01:55:02;;;;;;;;;;;6.60;99.90;;;;;;5022981;28;19926;-73
2022/04/06 01:57:30;;;;;;;;;;;6.60;99.90;;;;;;5021813;28;20795;-75
2022/04/06 01:59:57;;;;;;;;;;;6.60;99.90;;;;;;5018968;28;19929;-75
2022/04/06 02:02:25;;;;;;;;;;;6.60;99.90;;;;;;5018349;28;19968;-74
2022/04/06 02:04:52;;;;;;;;;;;6.60;99.90;;;;;;5035184;28;19932;-73
2022/04/06 02:07:19;;;;;;;;;;;6.60;99.90;;;;;;5020391;28;19933;-73
2022/04/06 02:09:46;;;;;;;;;;;6.50;99.90;;;;;;5031719;28;19972;-73
2022/04/06 02:12:13;;;;;;;;;;;6.40;99.90;;;;;;5035560;28;19926;-73
2022/04/06 02:14:41;;;;;;;;;;;6.50;99.90;;;;;;5018064;28;20274;-73
2022/04/06 02:17:09;;;;;;;;;;;6.50;99.90;;;;;;5029726;28;20323;-74
2022/04/06 02:19:36;;;;;;;;;;;6.50;99.90;;;;;;5015501;28;19968;-73
2022/04/06 02:22:04;;;;;;;;;;;6.50;99.90;;;;;;5028591;28;19925;-73
2022/04/06 02:24:31;;;;;;;;;;;6.50;99.90;;;;;;5014762;28;19951;-75
2022/04/06 02:26:58;;;;;;;;;;;6.50;99.90;;;;;;5012472;28;20885;-75
2022/04/06 02:29:25;;;;;;;;;;;6.40;99.90;;;;;;5013461;28;20452;-75
2022/04/06 02:31:52;;;;;;;;;;;6.40;99.90;;;;;;5012861;28;19964;-75
2022/04/06 02:34:19;;;;;;;;;;;6.40;99.90;;;;;;5014257;28;19929;-75
2022/04/06 02:36:46;;;;;;;;;;;6.40;99.90;;;;;;5015045;28;20390;-75
2022/04/06 02:39:13;;;;;;;;;;;6.40;99.90;;;;;;5012398;28;20654;-75
2022/04/06 02:41:40;;;;;;;;;;;6.40;99.90;;;;;;5029689;28;19933;-75
2022/04/06 02:44:07;;;;;;;;;;;6.30;99.90;;;;;;5016433;28;19931;-75
2022/04/06 02:46:34;;;;;;;;;;;6.30;99.90;;;;;;5033040;28;19955;-75
2022/04/06 02:49:01;;;;;;;;;;;6.30;99.90;;;;;;5018268;28;19937;-73
2022/04/06 02:51:27;;;;;;;;;;;6.30;99.90;;;;;;5017381;28;20315;-73
2022/04/06 02:53:54;;;;;;;;;;;6.30;99.90;;;;;;5033308;28;20386;-73
2022/04/06 02:56:21;;;;;;;;;;;6.20;99.90;;;;;;5016766;28;20038;-75
2022/04/06 02:58:48;;;;;;;;;;;6.20;99.90;;;;;;5019438;28;20368;-75
2022/04/06 03:01:15;;;;;;;;;;;6.20;99.90;;;;;;5034047;28;19979;-75
2022/04/06 03:03:42;;;;;;;;;;;6.10;99.90;;;;;;5014804;28;19944;-73
2022/04/06 03:06:09;;;;;;;;;;;6.10;99.90;;;;;;5034528;28;19934;-73
2022/04/06 03:08:36;;;;;;;;;;;6.10;99.90;;;;;;5014311;28;20441;-76
2022/04/06 03:11:03;;;;;;;;;;;6.10;99.90;;;;;;5014864;28;19929;-75
2022/04/06 03:13:30;;;;;;;;;;;6.00;99.90;;;;;;5017148;28;19939;-74
2022/04/06 03:15:57;;;;;;;;;;;6.00;99.90;;;;;;5015041;28;19929;-74
2022/04/06 03:18:24;;;;;;;;;;;6.00;99.90;;;;;;5013302;28;19930;-74
2022/04/06 03:20:51;;;;;;;;;;;6.00;99.90;;;;;;5014670;28;19939;-74
2022/04/06 03:23:18;;;;;;;;;;;6.00;99.90;;;;;;5033787;28;19929;-74
2022/04/06 03:25:45;;;;;;;;;;;6.00;99.90;;;;;;5017179;28;19929;-74
2022/04/06 03:28:12;;;;;;;;;;;5.90;99.90;;;;;;5035538;28;19926;-74
2022/04/06 03:30:39;;;;;;;;;;;5.90;99.90;;;;;;5000603;28;19987;-74
2022/04/06 03:33:07;;;;;;;;;;;5.90;99.90;;;;;;5022284;28;20372;-73
2022/04/06 03:35:33;;;;;;;;;;;5.90;99.90;;;;;;5022320;28;19937;-74
2022/04/06 03:38:00;;;;;;;;;;;5.90;99.90;;;;;;5020506;28;19936;-74
2022/04/06 03:40:31;;;;;;;;;;;5.90;99.90;;;;;;5021152;28;20431;-74
2022/04/06 03:42:57;;;;;;;;;;;5.90;99.90;;;;;;5021535;28;19929;-74
2022/04/06 03:45:24;;;;;;;;;;;5.90;99.90;;;;;;5021098;28;20595;-74
2022/04/06 03:47:51;;;;;;;;;;;5.90;99.90;;;;;;5035762;28;19936;-74
2022/04/06 03:50:18;;;;;;;;;;;5.80;99.90;;;;;;5019953;28;19971;-74
2022/04/06 03:52:45;;;;;;;;;;;5.80;99.90;;;;;;5021456;28;19926;-74
2022/04/06 03:55:12;;;;;;;;;;;5.80;99.90;;;;;;5038802;28;19930;-74
2022/04/06 03:57:39;;;;;;;;;;;5.80;99.90;;;;;;5024567;28;20075;-74
2022/04/06 04:00:08;;;;;;;;;;;5.80;99.90;;;;;;5036264;28;19925;-74
2022/04/06 04:02:35;;;;;;;;;;;5.80;99.90;;;;;;5036313;28;19929;-74
2022/04/06 04:05:03;;;;;;;;;;;5.80;99.90;;;;;;5036671;28;19929;-74
2022/04/06 04:07:31;;;;;;;;;;;5.80;99.90;;;;;;5023347;28;20335;-74
2022/04/06 04:10:09;;;;;;;;;;;5.90;99.90;;;;;;5023154;28;19933;-75
2022/04/06 04:12:36;;;;;;;;;;;5.80;99.90;;;;;;5020536;28;19941;-75
2022/04/06 04:15:03;;;;;;;;;;;5.80;99.90;;;;;;5019956;28;19932;-75
2022/04/06 04:17:30;;;;;;;;;;;5.80;99.90;;;;;;5014530;28;20273;-75
2022/04/06 04:19:57;;;;;;;;;;;5.70;99.90;;;;;;5015969;28;19933;-75
2022/04/06 04:22:24;;;;;;;;;;;5.70;99.90;;;;;;5014569;28;19934;-75
2022/04/06 04:24:51;;;;;;;;;;;5.80;99.90;;;;;;5015401;28;19932;-74
2022/04/06 04:27:18;;;;;;;;;;;5.80;99.90;;;;;;5015975;28;19936;-74
2022/04/06 04:29:45;;;;;;;;;;;5.90;99.90;;;;;;5014882;28;19929;-74
2022/04/06 04:32:14;;;;;;;;;;;5.90;99.90;;;;;;5030866;28;19933;-74
2022/04/06 04:34:42;;;;;;;;;;;5.90;99.90;;;;;;5018587;28;20380;-74
2022/04/06 04:37:09;;;;;;;;;;;5.90;99.90;;;;;;5017263;28;20355;-74
2022/04/06 04:39:36;;;;;;;;;;;6.00;99.90;;;;;;4994684;28;20505;-74
2022/04/06 04:42:03;;;;;;;;;;;6.00;99.90;;;;;;4997828;28;20012;-74
2022/04/06 04:44:30;;;;;;;;;;;6.00;99.90;;;;;;5020590;28;19929;-74
2022/04/06 04:46:57;;;;;;;;;;;6.10;99.90;;;;;;5021801;28;19925;-74
2022/04/06 04:49:24;;;;;;;;;;;6.10;99.90;;;;;;5000373;28;19929;-74
2022/04/06 04:51:51;;;;;;;;;;;6.10;99.90;;;;;;5018899;28;20460;-74
2022/04/06 04:54:23;;;;;;;;;;;6.10;99.90;;;;;;5018639;28;19933;-74
2022/04/06 04:56:56;;;;;;;;;;;6.10;99.90;;;;;;5036949;28;19925;-74
2022/04/06 04:59:25;;;;;;;;;;;6.20;99.90;;;;;;5020311;28;19982;-73
2022/04/06 05:01:52;;;;;;;;;;;6.20;99.90;;;;;;4999393;28;19937;-74
2022/04/06 05:04:19;;;;;;;;;;;6.30;99.90;;;;;;4993434;28;19940;-74
2022/04/06 05:06:47;;;;;;;;;;;6.30;99.90;;;;;;5003159;28;19940;-73
2022/04/06 05:09:14;;;;;;;;;;;6.30;99.90;;;;;;4997865;28;20068;-73
2022/04/06 05:11:40;;;;;;;;;;;6.40;99.90;;;;;;5002843;28;20027;-74
2022/04/06 05:14:07;;;;;;;;;;;6.40;99.90;;;;;;4966300;28;19933;-74
2022/04/06 05:16:34;;;;;;;;;;;6.40;99.90;;;;;;5001990;28;21038;-74
2022/04/06 05:19:01;;;;;;;;;;;6.50;99.90;;;;;;5008881;28;19940;-74
2022/04/06 05:21:28;;;;;;;;;;;6.50;99.90;;;;;;4995217;28;20072;-73
2022/04/06 05:23:57;;;;;;;;;;;6.60;99.90;;;;;;5013208;28;19939;-73
2022/04/06 05:26:24;;;;;;;;;;;6.60;99.90;;;;;;5013224;28;22270;-73
2022/04/06 05:28:51;;;;;;;;;;;6.70;99.90;;;;;;4993468;28;19957;-74
2022/04/06 05:31:18;;;;;;;;;;;6.70;99.90;;;;;;5002055;28;20016;-74
2022/04/06 05:33:45;;;;;;;;;;;6.80;99.90;;;;;;5000297;28;20039;-74
2022/04/06 05:36:18;;;;;;;;;;;6.80;99.90;;;;;;4994180;28;20343;-74
2022/04/06 05:38:45;;;;;;;;;;;6.80;99.90;;;;;;4996429;28;20086;-73
2022/04/06 05:41:12;;;;;;;;;;;6.90;99.90;;;;;;4993061;28;19933;-73
2022/04/06 05:43:39;;;;;;;;;;;6.90;99.90;;;;;;5002522;28;20031;-74
2022/04/06 05:46:06;;;;;;;;;;;7.00;99.90;;;;;;4963783;28;19991;-74
2022/04/06 05:48:34;;;;;;;;;;;7.00;99.90;;;;;;5006091;28;20051;-73
2022/04/06 05:51:01;;;;;;;;;;;7.10;99.90;;;;;;4993826;28;19966;-74
2022/04/06 05:53:28;;;;;;;;;;;7.20;99.90;;;;;;5000859;28;20934;-73
2022/04/06 05:55:55;;;;;;;;;;;7.20;99.90;;;;;;4998308;28;19940;-73
2022/04/06 05:58:22;;;;;;;;;;;7.30;99.90;;;;;;5000205;28;22377;-73
2022/04/06 06:00:49;;;;;;;;;;;7.30;99.90;;;;;;4976371;28;20022;-73
2022/04/06 06:03:15;;;;;;;;;;;7.40;99.90;;;;;;5008812;28;19933;-74
2022/04/06 06:05:43;;;;;;;;;;;7.40;99.90;;;;;;4999677;28;20067;-74
2022/04/06 06:08:17;;;;;;;;;;;7.50;99.90;;;;;;4999160;28;20936;-75
2022/04/06 06:10:44;;;;;;;;;;;7.50;99.90;;;;;;5007623;28;19939;-73
2022/04/06 06:13:11;;;;;;;;;;;7.60;99.90;;;;;;5000391;28;20421;-74
2022/04/06 06:15:38;;;;;;;;;;;7.70;99.90;;;;;;5019987;28;20404;-73
2022/04/06 06:18:05;;;;;;;;;;;7.80;99.90;;;;;;5019669;28;19933;-74
2022/04/06 06:20:32;;;;;;;;;;;7.90;99.90;;;;;;4996883;28;19978;-73
2022/04/06 06:22:59;;;;;;;;;;;8.00;99.90;;;;;;5016707;28;22317;-74
2022/04/06 06:25:26;;;;;;;;;;;8.10;99.90;;;;;;5005881;28;19933;-74
2022/04/06 06:27:53;;;;;;;;;;;8.20;99.90;;;;;;4985853;28;19933;-74
2022/04/06 06:30:20;;;;;;;;;;;8.20;99.90;;;;;;5001137;28;19932;-74
2022/04/06 06:32:47;;;;;;;;;;;8.30;99.90;;;;;;5008342;28;19988;-74
2022/04/06 06:35:14;;;;;;;;;;;8.40;99.90;;;;;;5007946;28;19933;-76
2022/04/06 06:37:46;;;;;;;;;;;8.50;99.90;;;;;;4983770;28;19941;-74
2022/04/06 06:40:13;;;;;;;;;;;8.60;99.90;;;;;;5007961;28;19933;-74
2022/04/06 06:42:40;;;;;;;;;;;8.70;99.90;;;;;;5000395;28;19987;-76
2022/04/06 06:45:07;;;;;;;;;;;8.80;99.90;;;;;;4997937;28;21949;-75
2022/04/06 06:47:34;;;;;;;;;;;8.90;99.90;;;;;;4998302;28;20016;-73
2022/04/06 06:50:01;;;;;;;;;;;9.10;99.90;;;;;;4981451;28;19940;-76
2022/04/06 06:52:28;;;;;;;;;;;9.20;99.90;;;;;;5001732;28;19964;-76
2022/04/06 06:54:55;;;;;;;;;;;9.20;99.90;;;;;;5004421;28;19936;-73
2022/04/06 06:57:22;;;;;;;;;;;9.20;99.90;;;;;;5009068;28;20419;-74
2022/04/06 06:59:49;;;;;;;;;;;9.50;99.90;;;;;;5000457;28;19941;-74
2022/04/06 07:02:16;;;;;;;;;;;9.80;99.90;;;;;;4997495;28;19940;-74
2022/04/06 07:04:43;;;;;;;;;;;10.00;99.90;;;;;;5000736;28;20396;-73
2022/04/06 07:07:10;;;;;;;;;;;10.10;99.90;;;;;;4999518;28;19940;-74
2022/04/06 07:09:42;;;;;;;;;;;10.20;99.90;;;;;;4998171;28;19932;-73
2022/04/06 07:12:10;;;;;;;;;;;10.50;99.90;;;;;;4968690;28;20037;-73
2022/04/06 07:14:37;;;;;;;;;;;10.60;99.90;;;;;;5005110;28;20405;-73
2022/04/06 07:17:05;;;;;;;;;;;10.80;99.90;;;;;;5000166;28;19940;-74
2022/04/06 07:19:32;;;;;;;;;;;10.80;99.90;;;;;;5020214;28;20723;-75
2022/04/06 07:21:59;;;;;;;;;;;11.00;99.90;;;;;;4965627;28;19954;-74
2022/04/06 07:24:27;;;;;;;;;;;11.20;99.90;;;;;;4995490;28;19932;-74
2022/04/06 07:26:54;;;;;;;;;;;11.30;99.90;;;;;;5002794;28;19968;-75
2022/04/06 07:29:21;;;;;;;;;;;11.30;99.90;;;;;;4995436;28;19939;-75
2022/04/06 07:31:48;;;;;;;;;;;11.60;99.90;;;;;;4973829;28;20315;-75
2022/04/06 07:34:16;;;;;;;;;;;11.70;99.90;;;;;;4985981;28;22128;-75
2022/04/06 07:36:43;;;;;;;;;;;11.80;98.80;;;;;;4995847;28;20383;-75
2022/04/06 07:39:10;;;;;;;;;;;11.90;97.60;;;;;;5009993;28;19982;-75
2022/04/06 07:41:37;;;;;;;;;;;12.10;96.80;;;;;;4992557;28;21941;-75
2022/04/06 07:44:05;;;;;;;;;;;12.20;96.10;;;;;;4996256;28;19940;-75
2022/04/06 07:46:33;;;;;;;;;;;12.30;96.60;;;;;;5001904;28;19933;-75
2022/04/06 07:49:00;;;;;;;;;;;12.50;94.60;;;;;;4995718;28;20572;-76
2022/04/06 07:51:27;;;;;;;;;;;12.50;95.10;;;;;;4991261;28;19933;-76
2022/04/06 07:53:54;;;;;;;;;;;12.70;93.70;;;;;;4984513;28;19937;-75
2022/04/06 07:56:22;;;;;;;;;;;12.60;93.00;;;;;;5000465;28;19972;-75
2022/04/06 07:58:49;;;;;;;;;;;12.60;92.70;;;;;;4994696;28;22402;-75
2022/04/06 08:01:16;;;;;;;;;;;12.50;92.20;;;;;;5001062;28;19932;-75
2022/04/06 08:03:43;;;;;;;;;;;12.40;91.90;;;;;;4982541;28;20327;-75
2022/04/06 08:06:11;;;;;;;;;;;12.50;92.00;;;;;;4991696;28;19989;-76
2022/04/06 08:08:38;;;;;;;;;;;12.60;91.40;;;;;;5002867;28;19943;-74
2022/04/06 08:11:05;;;;;;;;;;;13.00;89.70;;;;;;4993520;28;20304;-76
2022/04/06 08:13:32;;;;;;;;;;;13.40;88.90;;;;;;4993509;28;19940;-76
2022/04/06 08:16:00;;;;;;;;;;;13.60;82.50;;;;;;4986479;28;20030;-76
2022/04/06 08:18:28;;;;;;;;;;;13.70;79.70;;;;;;4969956;28;20889;-75
2022/04/06 08:20:55;;;;;;;;;;;13.60;81.70;;;;;;4957188;28;20078;-77
2022/04/06 08:23:22;;;;;;;;;;;13.90;80.90;;;;;;4991753;28;19937;-76
2022/04/06 08:25:51;;;;;;;;;;;13.90;81.40;;;;;;4988593;28;19939;-76
2022/04/06 08:28:19;;;;;;;;;;;13.90;79.70;;;;;;5005304;28;19933;-75
2022/04/06 08:30:47;;;;;;;;;;;14.10;79.80;;;;;;4969195;28;19933;-76
2022/04/06 08:33:15;;;;;;;;;;;14.30;79.00;;;;;;4991069;28;20804;-76
2022/04/06 08:35:43;;;;;;;;;;;14.50;80.70;;;;;;4988919;28;20098;-75
2022/04/06 08:38:11;;;;;;;;;;;14.60;79.20;;;;;;4995019;28;19971;-75
2022/04/06 08:44:24;;;;;;;;;;;14.10;80.20;;;;;;4994007;28;19959;-75
2022/04/06 08:46:52;;;;;;;;;;;13.60;80.70;;;;;;4984515;28;19939;-77
2022/04/06 08:49:22;;;;;;;;;;;14.00;79.70;;;;;;4987616;28;19933;-76
2022/04/06 08:51:51;;;;;;;;;;;14.40;78.00;;;;;;4986076;28;19960;-76
2022/04/06 08:54:18;;;;;;;;;;;14.70;79.00;;;;;;4971049;28;19937;-76
2022/04/06 08:56:45;;;;;;;;;;;15.00;79.60;;;;;;5003914;28;20043;-76
2022/04/06 08:59:13;;;;;;;;;;;15.20;76.00;;;;;;4994576;28;19940;-76
2022/04/06 09:01:40;;;;;;;;;;;15.30;74.20;;;;;;5003235;28;20429;-76
2022/04/06 09:04:07;;;;;;;;;;;15.20;74.50;;;;;;4991289;28;20050;-72
2022/04/06 09:06:54;;;;;;;;;;;15.30;76.80;;;;;;4973991;28;20145;-76
2022/04/06 09:09:22;;;;;;;;;;;15.40;75.70;;;;;;4983480;28;20063;-75
2022/04/06 09:11:49;;;;;;;;;;;15.50;73.80;;;;;;4979996;28;19932;-76
2022/04/06 09:14:28;;;;;;;;;;;15.70;73.00;;;;;;4988878;28;19940;-75
2022/04/06 09:17:02;;;;;;;;;;;15.70;70.40;;;;;;5001031;28;21943;-75
2022/04/06 09:19:30;;;;;;;;;;;15.80;71.20;;;;;;4992796;28;20027;-75
2022/04/06 09:21:57;;;;;;;;;;;16.00;71.30;;;;;;4970809;28;19933;-76
2022/04/06 09:24:24;;;;;;;;;;;16.00;70.90;;;;;;4992359;28;19972;-76
2022/04/06 09:26:58;;;;;;;;;;;15.80;73.30;;;;;;5002045;28;20826;-75
2022/04/06 09:29:26;;;;;;;;;;;16.10;70.50;;;;;;4981071;28;19932;-74
2022/04/06 09:31:53;;;;;;;;;;;16.10;69.40;;;;;;4979951;28;20096;-73
2022/04/06 09:34:21;;;;;;;;;;;16.20;69.90;;;;;;4980865;28;19933;-74
2022/04/06 09:36:56;;;;;;;;;;;16.10;68.50;;;;;;4994413;28;20307;-73
2022/04/06 09:39:42;;;;;;;;;;;16.40;68.40;;;;;;4963953;28;20096;-75
2022/04/06 09:42:17;;;;;;;;;;;16.30;66.40;;;;;;4987935;28;22125;-75
2022/04/06 09:47:41;;;;;;;;;;;16.50;67.80;;;;;;4984864;28;19932;-73
2022/04/06 09:50:19;;;;;;;;;;;16.60;68.10;;;;;;4988528;28;19933;-74
2022/04/06 09:52:49;;;;;;;;;;;16.70;67.10;;;;;;4983287;28;19933;-76
2022/04/06 09:55:17;;;;;;;;;;;16.80;65.90;;;;;;4997670;28;20349;-73
2022/04/06 09:57:47;;;;;;;;;;;17.00;67.60;;;;;;4969288;28;19933;-75
2022/04/06 10:00:18;;;;;;;;;;;17.10;65.60;;;;;;4985524;28;19932;-73
2022/04/06 10:02:46;;;;;;;;;;;17.10;64.50;;;;;;4982266;28;20070;-75
2022/04/06 10:05:14;;;;;;;;;;;17.20;64.60;;;;;;4990899;28;21919;-75
2022/04/06 10:07:42;;;;;;;;;;;17.20;64.60;;;;;;4983190;28;20514;-71
2022/04/06 10:10:10;;;;;;;;;;;17.30;65.70;;;;;;4982704;28;22073;-76
2022/04/06 10:12:38;;;;;;;;;;;17.40;64.80;;;;;;4998715;28;19933;-74
2022/04/06 10:15:25;;;;;;;;;;;17.10;65.20;;;;;;4987624;28;20788;-72
2022/04/06 10:17:53;;;;;;;;;;;16.90;65.30;;;;;;4992019;28;19989;-77
2022/04/06 10:20:28;;;;;;;;;;;16.60;65.90;;;;;;4989722;28;19933;-74
2022/04/06 10:23:05;;;;;;;;;;;16.60;66.90;;;;;;4989301;28;22330;-74
2022/04/06 10:25:50;;;;;;;;;;;16.80;66.40;;;;;;4998885;28;20120;-74
2022/04/06 10:28:18;;;;;;;;;;;17.10;65.90;;;;;;4992312;28;20513;-74
2022/04/06 10:31:04;;;;;;;;;;;17.40;66.20;;;;;;4977438;28;19991;-73
2022/04/06 10:33:32;;;;;;;;;;;17.40;64.40;;;;;;4989641;28;19933;-75
2022/04/06 10:36:18;;;;;;;;;;;17.30;65.10;;;;;;4998561;28;20352;-76
2022/04/06 10:39:03;;;;;;;;;;;17.60;63.30;;;;;;5006452;28;19933;-72
2022/04/06 10:41:31;;;;;;;;;;;17.90;62.00;;;;;;4991633;28;21993;-75
2022/04/06 10:44:33;;;;;;;;;;;18.10;61.30;;;;;;4986315;28;19933;-75
2022/04/06 10:47:08;;;;;;;;;;;18.20;63.10;;;;;;4982763;28;19933;-72
2022/04/06 10:49:35;;;;;;;;;;;18.10;60.40;;;;;;5001220;28;20058;-75
2022/04/06 10:52:17;;;;;;;;;;;18.20;62.30;;;;;;5001462;28;22348;-73
2022/04/06 10:54:44;;;;;;;;;;;18.30;61.70;;;;;;4990378;28;20699;-73
2022/04/06 10:57:12;;;;;;;;;;;18.40;61.30;;;;;;4980204;28;19959;-74
2022/04/06 10:59:39;;;;;;;;;;;18.40;60.70;;;;;;4994087;28;19987;-72
2022/04/06 11:02:17;;;;;;;;;;;18.40;61.70;;;;;;5000957;28;19932;-73
2022/04/06 11:04:45;;;;;;;;;;;18.60;61.00;;;;;;4988347;28;21867;-73
2022/04/06 11:07:15;;;;;;;;;;;18.50;60.70;;;;;;4991662;28;20031;-73
2022/04/06 11:12:30;;;;;;;;;;;18.40;61.20;;;;;;4986207;28;20030;-75
2022/04/06 11:14:57;;;;;;;;;;;18.70;60.70;;;;;;4989182;28;20015;-73
2022/04/06 11:17:32;;;;;;;;;;;18.90;56.70;;;;;;4988302;28;19940;-75
2022/04/06 11:20:02;;;;;;;;;;;18.90;55.70;;;;;;4991740;28;19932;-73
2022/04/06 11:22:29;;;;;;;;;;;18.70;55.90;;;;;;4978977;28;19933;-74
2022/04/06 11:24:56;;;;;;;;;;;19.00;57.10;;;;;;4998520;28;20046;-75
2022/04/06 11:27:30;;;;;;;;;;;19.10;58.60;;;;;;4954117;28;19933;-73
2022/04/06 11:29:58;;;;;;;;;;;19.30;58.20;;;;;;4954233;28;20328;-72
2022/04/06 11:32:25;;;;;;;;;;;19.10;57.70;;;;;;4969270;28;20315;-75
2022/04/06 11:34:57;;;;;;;;;;;19.20;58.40;;;;;;4988973;28;19933;-73
2022/04/06 11:37:24;;;;;;;;;;;19.50;56.10;;;;;;4984138;28;22608;-75
2022/04/06 11:40:00;;;;;;;;;;;19.40;57.00;;;;;;4983410;28;20622;-73
2022/04/06 11:42:27;;;;;;;;;;;19.50;58.40;;;;;;4988364;28;19932;-72
2022/04/06 11:44:54;;;;;;;;;;;19.30;54.80;;;;;;4995209;28;19933;-71
2022/04/06 11:47:28;;;;;;;;;;;19.20;55.80;;;;;;4987189;28;19933;-72
2022/04/06 11:49:55;;;;;;;;;;;19.20;56.20;;;;;;4950081;28;20668;-73
2022/04/06 11:52:23;;;;;;;;;;;19.30;56.90;;;;;;4982019;28;19975;-72
2022/04/06 11:54:51;;;;;;;;;;;19.40;55.40;;;;;;4998097;28;19955;-75
2022/04/06 11:57:18;;;;;;;;;;;19.50;55.90;;;;;;5003552;28;22052;-76
2022/04/06 11:59:52;;;;;;;;;;;19.70;54.70;;;;;;4987986;28;19932;-69
2022/04/06 12:02:19;;;;;;;;;;;19.80;57.00;;;;;;4992076;28;20653;-72
2022/04/06 12:04:58;;;;;;;;;;;19.70;53.90;;;;;;4993250;28;19942;-71
2022/04/06 12:07:24;;;;;;;;;;;19.60;54.90;;;;;;4968927;28;19941;-70
2022/04/06 12:09:52;;;;;;;;;;;19.50;55.20;;;;;;4988702;28;19933;-72
2022/04/06 12:12:19;;;;;;;;;;;19.40;55.50;;;;;;5006539;28;19932;-73
2022/04/06 12:14:47;;;;;;;;;;;19.70;55.30;;;;;;4981858;28;19933;-74
2022/04/06 12:17:14;;;;;;;;;;;19.70;55.40;;;;;;4984635;28;19933;-72
2022/04/06 12:19:41;;;;;;;;;;;19.70;54.90;;;;;;4990672;28;20030;-75
2022/04/06 12:22:08;;;;;;;;;;;19.70;55.00;;;;;;4988072;28;19932;-71
2022/04/06 12:24:36;;;;;;;;;;;19.40;56.30;;;;;;4956902;28;19939;-71
2022/04/06 12:27:03;;;;;;;;;;;19.60;55.60;;;;;;5002565;28;19964;-71
2022/04/06 12:29:32;;;;;;;;;;;19.80;55.30;;;;;;4992970;28;19933;-70
2022/04/06 12:32:00;;;;;;;;;;;19.70;55.00;;;;;;4986333;28;22076;-72
2022/04/06 12:34:28;;;;;;;;;;;19.90;54.60;;;;;;5003064;28;20022;-71
2022/04/06 12:36:55;;;;;;;;;;;20.00;54.00;;;;;;4992739;28;19933;-71
2022/04/06 12:39:22;;;;;;;;;;;19.90;52.20;;;;;;4983604;28;20455;-71
2022/04/06 12:42:29;;;;;;;;;;;19.90;51.80;;;;;;4999305;28;19972;-71
2022/04/06 12:44:56;;;;;;;;;;;20.00;52.70;;;;;;4985697;28;19933;-71
2022/04/06 12:47:23;;;;;;;;;;;20.00;52.00;;;;;;4981812;28;19933;-71
2022/04/06 12:49:51;;;;;;;;;;;20.00;52.20;;;;;;4991487;28;20600;-72
2022/04/06 12:52:25;;;;;;;;;;;20.10;51.20;;;;;;4990865;28;20162;-72
2022/04/06 12:55:10;;;;;;;;;;;20.00;49.60;;;;;;4989462;28;19932;-68
2022/04/06 12:57:37;;;;;;;;;;;20.00;51.80;;;;;;4990551;28;19933;-72
2022/04/06 13:00:13;;;;;;;;;;;20.00;51.40;;;;;;4986977;28;19932;-70
2022/04/06 13:02:50;;;;;;;;;;;19.90;53.30;;;;;;4991819;28;19932;-71
2022/04/06 13:05:18;;;;;;;;;;;19.90;51.00;;;;;;5001545;28;19968;-70
2022/04/06 13:07:48;;;;;;;;;;;20.10;51.40;;;;;;4955889;28;19933;-70
2022/04/06 13:10:17;;;;;;;;;;;20.10;51.90;;;;;;4955464;28;21933;-70
2022/04/06 13:12:45;;;;;;;;;;;20.10;50.80;;;;;;4986063;28;19960;-70
2022/04/06 13:15:13;;;;;;;;;;;20.10;51.70;;;;;;4991157;28;19940;-71
2022/04/06 13:17:41;;;;;;;;;;;20.10;51.80;;;;;;4992102;28;19933;-72
2022/04/06 13:20:09;;;;;;;;;;;20.20;52.20;;;;;;4983400;28;20678;-71
2022/04/06 13:22:37;;;;;;;;;;;20.20;51.60;;;;;;4993398;28;19933;-70
2022/04/06 13:25:04;;;;;;;;;;;20.20;52.70;;;;;;4992710;28;19933;-71
2022/04/06 13:27:32;;;;;;;;;;;20.30;51.30;;;;;;4983328;28;21902;-71
2022/04/06 13:30:07;;;;;;;;;;;20.20;51.80;;;;;;4987384;28;20655;-71
2022/04/06 13:32:34;;;;;;;;;;;20.40;51.80;;;;;;4986031;28;20118;-70
2022/04/06 13:35:00;;;;;;;;;;;20.30;51.40;;;;;;4988553;28;20020;-71
2022/04/06 13:37:28;;;;;;;;;;;20.30;50.30;;;;;;4993447;28;19975;-71
2022/04/06 13:39:55;;;;;;;;;;;20.40;51.70;;;;;;4993366;28;19932;-71
2022/04/06 13:42:22;;;;;;;;;;;20.20;51.80;;;;;;4993291;28;19940;-71
2022/04/06 13:44:49;;;;;;;;;;;20.20;51.20;;;;;;5000815;28;20814;-70
2022/04/06 13:47:16;;;;;;;;;;;20.20;50.90;;;;;;4983926;28;19939;-70
2022/04/06 13:49:43;;;;;;;;;;;20.10;51.10;;;;;;4997132;28;20409;-70
2022/04/06 13:52:11;;;;;;;;;;;20.10;52.20;;;;;;5001651;28;20607;-70
2022/04/06 13:54:38;;;;;;;;;;;20.20;51.90;;;;;;4971365;28;21957;-71
2022/04/06 13:57:05;;;;;;;;;;;20.30;52.20;;;;;;4990003;28;20300;-70
2022/04/06 13:59:32;;;;;;;;;;;20.30;51.40;;;;;;4992859;28;20769;-72
2022/04/06 14:01:59;;;;;;;;;;;20.30;49.80;;;;;;4980049;28;19939;-72
2022/04/06 14:04:26;;;;;;;;;;;20.30;49.60;;;;;;4991684;28;20759;-72
2022/04/06 14:06:54;;;;;;;;;;;20.40;50.60;;;;;;4997814;28;19933;-72
2022/04/06 14:09:22;;;;;;;;;;;20.20;49.60;;;;;;4956007;28;19933;-72
2022/04/06 14:14:09;;;;;;;;;;;20.30;49.90;;;;;;5037976;27;21730;-71
2022/04/06 14:16:38;;;;;;;;;;;20.00;49.70;;;;;;4966445;27;20121;-71
2022/04/06 14:19:06;;;;;;;;;;;20.00;48.80;;;;;;5005479;28;19986;-71
2022/04/06 14:21:34;;;;;;;;;;;20.00;50.20;;;;;;5002751;28;19942;-70
2022/04/06 14:24:01;;;;;;;;;;;19.90;49.00;;;;;;5004432;28;19940;-71
2022/04/06 14:26:29;;;;;;;;;;;19.90;50.00;;;;;;5005631;28;19956;-71
2022/04/06 14:28:56;;;;;;;;;;;19.90;50.70;;;;;;5000983;28;19932;-71
2022/04/06 14:31:23;;;;;;;;;;;19.80;50.10;;;;;;5002813;28;21863;-71
2022/04/06 14:33:50;;;;;;;;;;;19.80;50.60;;;;;;5018205;28;20462;-72
2022/04/06 14:36:18;;;;;;;;;;;19.80;49.30;;;;;;5003893;28;19933;-70
2022/04/06 14:38:46;;;;;;;;;;;19.80;51.40;;;;;;5003713;28;20908;-71
2022/04/06 14:41:14;;;;;;;;;;;19.70;50.20;;;;;;4987527;28;19956;-71
2022/04/06 14:43:41;;;;;;;;;;;19.70;50.90;;;;;;5002288;28;20640;-71
2022/04/06 14:46:09;;;;;;;;;;;19.70;50.80;;;;;;5005041;28;19933;-71